Station Historical Data
Daily Summary for February 10, 2018 Units:  Metric    English   Both
« Previous Day
Next Day »
Daily Weekly Monthly Yearly Custom
  High: Low: Average:
Temperature: -17.8 °C -3.2 °C -2 °C
Dew Point: -17.8 °C -4.8 °C -3.6 °C
Humidity: Humidity% 85% 89%
Wind Speed: 0km/h 0km/h 2.7km/h
Wind Gust: 0km/h - -
Wind- - ENE
Pressure: 0 hPa 1018.2 hPa -
Precipitation: 0 mm    
Historical Graphs
 
 
Tabular Data for February 10, 2018
Time Temperature Dew Point Pressure Wind Wind Speed Wind Gust Humidity Rainfall Rate (Hourly)
-17.8 °C -17.8 °C 0 hPa Calm     Humidity% 0 mm
00:04 -2.3 °C -3.7 °C 1021.9 hPa Calm     90% 0 mm
00:09 -2.2 °C -3.7 °C 1021.9 hPa Calm     90% 0 mm
00:14 -2.2 °C -3.6 °C 1021.9 hPa Calm     90% 0 mm
00:19 -2.2 °C -3.6 °C 1021.9 hPa Calm     90% 0 mm
00:24 -2.1 °C -3.6 °C 1021.9 hPa Calm     90% 0 mm
00:29 -2.1 °C -3.5 °C 1021.9 hPa Calm     90% 0 mm
00:34 -2 °C -3.4 °C 1021.9 hPa Calm     90% 0 mm
00:39 -1.9 °C -3.4 °C 1021.9 hPa Calm     90% 0 mm
00:44 -1.9 °C -3.4 °C 1021.9 hPa Calm     90% 0 mm
00:49 -1.9 °C -3.2 °C 1021.9 hPa Calm     91% 0 mm
00:54 -1.8 °C -3.1 °C 1021.9 hPa Calm     91% 0 mm
00:59 -1.8 °C -3.1 °C 1021.9 hPa Calm     91% 0 mm
01:04 -1.7 °C -3 °C 1021.9 hPa Calm     91% 0 mm
01:09 -1.6 °C -2.9 °C 1021.9 hPa Calm     91% 0 mm
01:14 -1.5 °C -2.8 °C 1021.9 hPa Calm     91% 0 mm
01:19 -1.5 °C -2.8 °C 1021.9 hPa Calm     91% 0 mm
01:24 -1.4 °C -2.7 °C 1021.9 hPa Calm     91% 0 mm
01:29 -1.4 °C -2.7 °C 1021.9 hPa Calm     91% 0 mm
01:34 -1.3 °C -2.6 °C 1021.9 hPa Calm     91% 0 mm
01:39 -1.3 °C -2.6 °C 1021.9 hPa Calm     91% 0 mm
01:44 -1.2 °C -2.5 °C 1021.9 hPa Calm     91% 0 mm
01:49 -1.2 °C -2.5 °C 1021.9 hPa Calm     91% 0 mm
01:54 -1.2 °C -2.4 °C 1022.2 hPa Calm     91% 0 mm
01:59 -1.2 °C -2.4 °C 1022.2 hPa NE 1.6 km/h 6.4 km/h 91% 0 mm
02:04 -1.2 °C -2.4 °C 1022.2 hPa NE 1.6 km/h 6.4 km/h 91% 0 mm
02:09 -1.2 °C -2.4 °C 1022.2 hPa NNW 1.6 km/h 4.8 km/h 91% 0 mm
02:14 -1.2 °C -2.4 °C 1021.9 hPa NNW 1.6 km/h 4.8 km/h 91% 0 mm
02:19 -1.2 °C -2.5 °C 1022.2 hPa Calm   4.8 km/h 91% 0 mm
02:24 -1.2 °C -2.5 °C 1021.9 hPa Calm   4.8 km/h 91% 0 mm
02:29 -1.2 °C -2.5 °C 1021.9 hPa NNW 1.6 km/h 4.8 km/h 91% 0 mm
02:34 -1.2 °C -2.5 °C 1022.2 hPa Calm   4.8 km/h 91% 0 mm
02:39 -1.3 °C -2.6 °C 1022.2 hPa Calm     91% 0 mm
02:44 -1.3 °C -2.6 °C 1022.2 hPa Calm     91% 0 mm
02:49 -1.3 °C -2.6 °C 1022.2 hPa Calm     91% 0 mm
02:54 -1.3 °C -2.6 °C 1021.9 hPa Calm     91% 0 mm
02:59 -1.3 °C -2.6 °C 1021.9 hPa Calm     91% 0 mm
03:04 -1.4 °C -2.7 °C 1021.9 hPa NNW 1.6 km/h 6.4 km/h 91% 0 mm
03:09 -1.4 °C -2.7 °C 1021.9 hPa NNW 1.6 km/h 6.4 km/h 91% 0 mm
03:14 -1.4 °C -2.7 °C 1021.9 hPa NNW 3.2 km/h 6.4 km/h 91% 0 mm
03:19 -1.4 °C -2.7 °C 1021.9 hPa Calm   3.2 km/h 91% 0 mm
03:24 -1.4 °C -2.7 °C 1021.9 hPa Calm     91% 0 mm
03:29 -1.5 °C -2.8 °C 1021.9 hPa Calm     91% 0 mm
03:34 -1.5 °C -2.8 °C 1021.9 hPa Calm   1.6 km/h 91% 0 mm
03:39 -1.6 °C -2.8 °C 1021.9 hPa Calm   1.6 km/h 91% 0 mm
03:44 -1.6 °C -2.9 °C 1021.9 hPa Calm     91% 0 mm
03:49 -1.7 °C -2.9 °C 1021.9 hPa Calm   4.8 km/h 91% 0 mm
03:54 -1.8 °C -3.1 °C 1021.9 hPa NNW 1.6 km/h 4.8 km/h 91% 0 mm
03:59 -2 °C -3.3 °C 1021.6 hPa Calm   4.8 km/h 91% 0 mm
04:04 -2.2 °C -3.4 °C 1021.9 hPa NNW 1.6 km/h 4.8 km/h 91% 0 mm
04:09 -2.3 °C -3.6 °C 1021.9 hPa Calm   3.2 km/h 91% 0 mm
04:14 -2.4 °C -3.7 °C 1021.6 hPa Calm   3.2 km/h 91% 0 mm
04:19 -2.4 °C -3.7 °C 1021.6 hPa Calm     91% 0 mm
04:24 -2.5 °C -3.8 °C 1021.6 hPa Calm     91% 0 mm
04:29 -2.6 °C -3.8 °C 1021.9 hPa Calm     91% 0 mm
04:34 -2.6 °C -3.8 °C 1021.9 hPa Calm     91% 0 mm
04:39 -2.6 °C -3.8 °C 1021.6 hPa Calm     91% 0 mm
04:44 -2.6 °C -3.8 °C 1021.6 hPa Calm     91% 0 mm
04:49 -2.6 °C -3.8 °C 1021.9 hPa Calm     91% 0 mm
04:54 -2.6 °C -3.8 °C 1021.9 hPa Calm     91% 0 mm
04:59 -2.6 °C -3.8 °C 1021.9 hPa Calm     91% 0 mm
05:04 -2.6 °C -3.8 °C 1021.9 hPa Calm     91% 0 mm
05:09 -2.6 °C -3.8 °C 1021.9 hPa Calm     91% 0 mm
05:14 -2.6 °C -3.8 °C 1021.9 hPa Calm     91% 0 mm
05:19 -2.6 °C -3.8 °C 1021.9 hPa Calm     91% 0 mm
05:24 -2.6 °C -3.8 °C 1021.9 hPa Calm     91% 0 mm
05:29 -2.6 °C -3.8 °C 1021.9 hPa Calm     91% 0 mm
05:34 -2.6 °C -3.8 °C 1021.9 hPa Calm     91% 0 mm
05:39 -2.5 °C -3.8 °C 1021.9 hPa Calm     91% 0 mm
05:44 -2.5 °C -3.8 °C 1021.9 hPa Calm     91% 0 mm
05:49 -2.5 °C -3.8 °C 1021.9 hPa Calm     91% 0 mm
05:54 -2.5 °C -3.8 °C 1021.9 hPa Calm     91% 0 mm
05:59 -2.5 °C -3.8 °C 1021.9 hPa Calm     91% 0 mm
06:04 -2.5 °C -3.8 °C 1021.9 hPa Calm     91% 0 mm
06:09 -2.5 °C -3.8 °C 1021.9 hPa Calm     91% 0 mm
06:14 -2.5 °C -3.8 °C 1021.9 hPa Calm     91% 0 mm
06:19 -2.6 °C -3.8 °C 1021.9 hPa Calm     91% 0 mm
06:24 -2.5 °C -3.8 °C 1021.9 hPa Calm     91% 0 mm
06:29 -2.5 °C -3.8 °C 1021.9 hPa Calm     91% 0 mm
06:34 -2.6 °C -3.8 °C 1021.6 hPa Calm     91% 0 mm
06:39 -2.5 °C -3.8 °C 1021.9 hPa Calm     91% 0 mm
06:44 -2.5 °C -3.8 °C 1021.6 hPa Calm     91% 0 mm
06:49 -2.6 °C -3.8 °C 1021.6 hPa Calm     91% 0 mm
06:54 -2.5 °C -3.8 °C 1021.6 hPa Calm     91% 0 mm
06:59 -2.5 °C -3.8 °C 1021.9 hPa Calm     91% 0 mm
07:04 -2.5 °C -3.8 °C 1021.9 hPa Calm     91% 0 mm
07:09 -2.5 °C -3.8 °C 1021.6 hPa Calm     91% 0 mm
07:14 -2.5 °C -3.8 °C 1021.9 hPa Calm     91% 0 mm
07:19 -2.5 °C -3.8 °C 1021.6 hPa Calm     91% 0 mm
07:24 -2.5 °C -3.8 °C 1021.6 hPa Calm     91% 0 mm
07:29 -2.4 °C -3.7 °C 1021.9 hPa Calm     91% 0 mm
07:34 -2.4 °C -3.7 °C 1021.9 hPa Calm     91% 0 mm
07:39 -2.4 °C -3.7 °C 1021.9 hPa Calm     91% 0 mm
07:44 -2.4 °C -3.7 °C 1021.9 hPa Calm     91% 0 mm
07:49 -2.4 °C -3.7 °C 1022.2 hPa Calm     91% 0 mm
07:54 -2.3 °C -3.6 °C 1022.2 hPa Calm     91% 0 mm
07:59 -2.3 °C -3.6 °C 1022.2 hPa Calm     91% 0 mm
08:04 -2.3 °C -3.6 °C 1022.2 hPa Calm     91% 0 mm
08:09 -2.3 °C -3.6 °C 1022.2 hPa Calm     91% 0 mm
08:14 -2.2 °C -3.5 °C 1022.2 hPa Calm     91% 0 mm
08:19 -2.2 °C -3.5 °C 1022.2 hPa Calm     91% 0 mm
08:24 -2.2 °C -3.5 °C 1022.2 hPa Calm     91% 0 mm
08:29 -2.2 °C -3.4 °C 1022.2 hPa Calm     91% 0 mm
08:34 -2.2 °C -3.4 °C 1022.2 hPa Calm   3.2 km/h 91% 0 mm
08:39 -2.2 °C -3.4 °C 1022.2 hPa Calm   3.2 km/h 91% 0 mm
08:44 -2.2 °C -3.4 °C 1022.2 hPa Calm     91% 0 mm
08:49 -2.1 °C -3.4 °C 1021.9 hPa Calm     91% 0 mm
08:54 -2.1 °C -3.3 °C 1021.9 hPa Calm     91% 0 mm
08:59 -2 °C -3.3 °C 1021.9 hPa Calm     91% 0 mm
09:04 -1.9 °C -3.2 °C 1021.9 hPa Calm     91% 0 mm
09:09 -1.9 °C -3.2 °C 1021.9 hPa Calm     91% 0 mm
09:14 -1.8 °C -3.1 °C 1021.9 hPa Calm     91% 0 mm
09:19 -1.8 °C -3.1 °C 1021.9 hPa Calm     91% 0 mm
09:24 -1.8 °C -3.1 °C 1021.6 hPa Calm     91% 0 mm
09:29 -1.7 °C -2.9 °C 1021.6 hPa Calm     91% 0 mm
09:34 -1.6 °C -2.9 °C 1021.6 hPa Calm     91% 0 mm
09:39 -1.6 °C -3 °C 1021.6 hPa Calm     90% 0 mm
09:44 -1.4 °C -2.9 °C 1021.6 hPa Calm     90% 0 mm
09:49 -1.4 °C -2.9 °C 1021.6 hPa Calm     90% 0 mm
09:54 -1.4 °C -2.8 °C 1021.6 hPa Calm     90% 0 mm
09:59 -1.3 °C -2.8 °C 1021.6 hPa Calm     90% 0 mm
10:04 -1.3 °C -2.7 °C 1021.6 hPa Calm     90% 0 mm
10:09 -1.2 °C -2.7 °C 1021.2 hPa Calm     90% 0 mm
10:14 -1.1 °C -2.7 °C 1021.2 hPa Calm   4.8 km/h 89% 0 mm
10:19 -1 °C -2.6 °C 1020.9 hPa NNW 3.2 km/h 4.8 km/h 89% 0 mm
10:24 -0.9 °C -2.5 °C 1020.9 hPa NNW 1.6 km/h 6.4 km/h 89% 0 mm
10:29 -0.8 °C -2.4 °C 1020.9 hPa Calm   4.8 km/h 89% 0 mm
10:34 -0.7 °C -2.4 °C 1021.2 hPa NNW 1.6 km/h 4.8 km/h 88% 0 mm
10:39 -0.8 °C -2.5 °C 1021.2 hPa NNW 1.6 km/h 8 km/h 88% 0 mm
10:44 -0.8 °C -2.5 °C 1021.2 hPa North 3.2 km/h 8 km/h 88% 0 mm
10:49 -0.8 °C -2.7 °C 1021.2 hPa North 3.2 km/h 6.4 km/h 87% 0 mm
10:54 -0.8 °C -2.7 °C 1021.2 hPa North 3.2 km/h 6.4 km/h 87% 0 mm
10:59 -0.8 °C -2.7 °C 1021.2 hPa North 1.6 km/h 4.8 km/h 87% 0 mm
11:04 -0.8 °C -2.7 °C 1021.2 hPa North 3.2 km/h 4.8 km/h 87% 0 mm
11:09 -0.7 °C -2.6 °C 1021.2 hPa North 3.2 km/h 4.8 km/h 87% 0 mm
11:14 -0.6 °C -2.4 °C 1020.9 hPa North 3.2 km/h 4.8 km/h 87% 0 mm
11:19 -0.4 °C -2.3 °C 1020.9 hPa North 4.8 km/h 4.8 km/h 87% 0 mm
11:24 -0.4 °C -2.4 °C 1020.9 hPa North 4.8 km/h 4.8 km/h 86% 0 mm
11:29 -0.4 °C -2.5 °C 1020.9 hPa North 3.2 km/h 8 km/h 86% 0 mm
11:34 -0.4 °C -2.4 °C 1020.9 hPa North 4.8 km/h 6.4 km/h 86% 0 mm
11:39 -0.3 °C -2.4 °C 1020.9 hPa North 3.2 km/h 8 km/h 86% 0 mm
11:44 -0.3 °C -2.5 °C 1020.5 hPa North 3.2 km/h 8 km/h 85% 0 mm
11:49 -0.3 °C -2.5 °C 1020.5 hPa North 4.8 km/h 8 km/h 85% 0 mm
11:54 -0.3 °C -2.5 °C 1020.2 hPa NNE 3.2 km/h 6.4 km/h 85% 0 mm
11:59 -0.2 °C -2.4 °C 1020.2 hPa NNE 1.6 km/h 3.2 km/h 85% 0 mm
12:04 -0.2 °C -2.4 °C 1019.9 hPa NNE 1.6 km/h 6.4 km/h 85% 0 mm
12:09 -0.2 °C -2.4 °C 1019.9 hPa NNE 3.2 km/h 6.4 km/h 85% 0 mm
12:14 -0.2 °C -2.2 °C 1019.9 hPa NNE 1.6 km/h 4.8 km/h 86% 0 mm
12:19 -0.2 °C -2.4 °C 1019.9 hPa NNE 3.2 km/h 6.4 km/h 85% 0 mm
12:24 -0.2 °C -2.4 °C 1019.9 hPa NNE 3.2 km/h 6.4 km/h 85% 0 mm
12:29 -0.3 °C -2.5 °C 1019.9 hPa NNE 1.6 km/h 6.4 km/h 85% 0 mm
12:34 -0.3 °C -2.6 °C 1019.9 hPa Calm   4.8 km/h 85% 0 mm
12:39 -0.4 °C -2.5 °C 1019.5 hPa NNE 3.2 km/h 6.4 km/h 86% 0 mm
12:44 -0.6 °C -2.6 °C 1019.9 hPa NNE 3.2 km/h 6.4 km/h 86% 0 mm
12:49 -0.5 °C -2.6 °C 1019.5 hPa NNE 3.2 km/h 6.4 km/h 86% 0 mm
12:54 -0.5 °C -2.6 °C 1019.5 hPa Calm   6.4 km/h 86% 0 mm
12:59 -0.6 °C -2.6 °C 1019.9 hPa North 4.8 km/h 6.4 km/h 86% 0 mm
13:04 -0.6 °C -2.7 °C 1019.5 hPa North 1.6 km/h 4.8 km/h 86% 0 mm
13:09 -0.6 °C -2.7 °C 1019.5 hPa NNE 3.2 km/h 6.4 km/h 86% 0 mm
13:14 -0.7 °C -2.8 °C 1019.2 hPa NNE 4.8 km/h 8 km/h 86% 0 mm
13:19 -0.8 °C -2.7 °C 1019.2 hPa NNE 3.2 km/h 8 km/h 87% 0 mm
13:24 -0.7 °C -2.6 °C 1019.2 hPa NNE 3.2 km/h 6.4 km/h 87% 0 mm
13:29 -0.8 °C -2.7 °C 1019.2 hPa NNE 3.2 km/h 6.4 km/h 87% 0 mm
13:34 -0.8 °C -2.7 °C 1019.2 hPa NNE 3.2 km/h 6.4 km/h 87% 0 mm
13:39 -0.8 °C -2.7 °C 1019.2 hPa NNE 3.2 km/h 6.4 km/h 87% 0 mm
13:44 -0.8 °C -2.7 °C 1019.2 hPa NNE 3.2 km/h 6.4 km/h 87% 0 mm
13:49 -0.8 °C -2.7 °C 1018.8 hPa NNE 4.8 km/h 4.8 km/h 87% 0 mm
13:54 -0.8 °C -2.7 °C 1018.8 hPa NNE 4.8 km/h 6.4 km/h 87% 0 mm
13:59 -0.7 °C -2.6 °C 1018.8 hPa NNE 3.2 km/h 4.8 km/h 87% 0 mm
14:04 -0.7 °C -2.6 °C 1018.8 hPa NNE 6.4 km/h 8 km/h 87% 0 mm
14:09 -0.7 °C -2.6 °C 1018.8 hPa NNE 1.6 km/h 8 km/h 87% 0 mm
14:14 -0.7 °C -2.6 °C 1018.8 hPa North 3.2 km/h 8 km/h 87% 0 mm
14:19 -0.8 °C -2.7 °C 1018.5 hPa North 3.2 km/h 8 km/h 87% 0 mm
14:24 -0.8 °C -2.7 °C 1018.5 hPa North 3.2 km/h 8 km/h 87% 0 mm
14:29 -0.8 °C -2.7 °C 1018.2 hPa North 4.8 km/h 9.7 km/h 87% 0 mm
14:34 -0.7 °C -2.6 °C 1018.5 hPa NNE 4.8 km/h 9.7 km/h 87% 0 mm
14:39 -0.6 °C -2.5 °C 1018.5 hPa NNE 3.2 km/h 6.4 km/h 87% 0 mm
14:44 -0.6 °C -2.5 °C 1018.5 hPa NNE 3.2 km/h 9.7 km/h 87% 0 mm
14:49 -0.7 °C -2.6 °C 1018.8 hPa NNE 4.8 km/h 11.3 km/h 87% 0 mm
14:54 -0.8 °C -2.7 °C 1018.8 hPa NNE 6.4 km/h 6.4 km/h 87% 0 mm
14:59 -0.8 °C -2.7 °C 1018.8 hPa NNE 6.4 km/h 8 km/h 87% 0 mm
15:04 -0.9 °C -2.8 °C 1019.2 hPa NNE 4.8 km/h 8 km/h 87% 0 mm
15:09 -0.9 °C -2.8 °C 1018.8 hPa ENE 3.2 km/h 11.3 km/h 87% 0 mm
15:14 -0.8 °C -2.7 °C 1018.8 hPa NNE 3.2 km/h 8 km/h 87% 0 mm
15:19 -0.9 °C -2.8 °C 1018.8 hPa NNE 3.2 km/h 8 km/h 87% 0 mm
15:24 -0.9 °C -2.8 °C 1018.8 hPa NNE 4.8 km/h 8 km/h 87% 0 mm
15:29 -1.1 °C -2.9 °C 1018.8 hPa NNE 4.8 km/h 9.7 km/h 87% 0 mm
15:34 -1.1 °C -2.9 °C 1019.2 hPa NE 3.2 km/h 9.7 km/h 87% 0 mm
15:39 -1.1 °C -3.2 °C 1019.2 hPa NE 4.8 km/h 9.7 km/h 86% 0 mm
15:44 -1.2 °C -3.3 °C 1019.2 hPa NE 4.8 km/h 9.7 km/h 86% 0 mm
15:54 -1.4 °C -3.4 °C 1019.2 hPa NE 6.4 km/h 12.9 km/h 86% 0 mm
15:59 -1.4 °C -3.5 °C 1019.2 hPa NE 4.8 km/h 12.9 km/h 86% 0 mm
16:04 -1.5 °C -3.4 °C 1019.2 hPa NE 3.2 km/h 8 km/h 87% 0 mm
16:09 -1.6 °C -3.4 °C 1019.5 hPa NE 4.8 km/h 8 km/h 87% 0 mm
16:14 -1.6 °C -3.4 °C 1019.5 hPa NE 4.8 km/h 12.9 km/h 87% 0 mm
16:19 -1.6 °C -3.5 °C 1019.5 hPa NE 3.2 km/h 8 km/h 87% 0 mm
16:24 -1.7 °C -3.6 °C 1019.2 hPa NE 6.4 km/h 8 km/h 87% 0 mm
16:34 -1.8 °C -3.7 °C 1019.2 hPa NE 4.8 km/h 11.3 km/h 87% 0 mm
16:39 -1.9 °C -3.8 °C 1019.2 hPa NNE 6.4 km/h 11.3 km/h 87% 0 mm
16:44 -2 °C -3.9 °C 1019.2 hPa NE 6.4 km/h 11.3 km/h 87% 0 mm
16:49 -2 °C -3.7 °C 1019.2 hPa NE 4.8 km/h 12.9 km/h 88% 0 mm
16:54 -2.1 °C -3.8 °C 1019.2 hPa NE 4.8 km/h 11.3 km/h 88% 0 mm
16:59 -2.1 °C -3.9 °C 1019.2 hPa NE 6.4 km/h 16.1 km/h 87% 0 mm
17:04 -2.2 °C -3.9 °C 1019.2 hPa NNE 4.8 km/h 11.3 km/h 88% 0 mm
17:09 -2.2 °C -3.9 °C 1019.2 hPa ENE 16.1 km/h 16.1 km/h 88% 0 mm
17:14 -2.3 °C -4 °C 1019.5 hPa NNE 4.8 km/h 16.1 km/h 88% 0 mm
17:19 -2.3 °C -4 °C 1019.9 hPa NE 6.4 km/h 11.3 km/h 88% 0 mm
17:24 -2.3 °C -4.1 °C 1019.9 hPa ENE 4.8 km/h 14.5 km/h 88% 0 mm
17:29 -2.4 °C -4.1 °C 1019.9 hPa ENE 6.4 km/h 12.9 km/h 88% 0 mm
17:34 -2.4 °C -4.2 °C 1019.9 hPa NE 6.4 km/h 12.9 km/h 88% 0 mm
17:39 -2.4 °C -4.2 °C 1019.9 hPa NE 6.4 km/h 12.9 km/h 88% 0 mm
17:44 -2.5 °C -4.2 °C 1019.9 hPa NE 6.4 km/h 12.9 km/h 88% 0 mm
17:49 -2.6 °C -4.3 °C 1019.9 hPa NE 6.4 km/h 12.9 km/h 88% 0 mm
17:54 -2.6 °C -4.3 °C 1020.2 hPa NE 6.4 km/h 12.9 km/h 88% 0 mm
17:59 -2.6 °C -4.3 °C 1020.2 hPa NE 8 km/h 11.3 km/h 88% 0 mm
18:04 -2.6 °C -4.3 °C 1020.5 hPa NE 6.4 km/h 14.5 km/h 88% 0 mm
18:09 -2.7 °C -4.4 °C 1020.5 hPa NE 8 km/h 20.9 km/h 88% 0 mm
18:14 -2.7 °C -4.4 °C 1020.5 hPa NE 9.7 km/h 16.1 km/h 88% 0 mm
18:19 -2.7 °C -4.4 °C 1020.5 hPa NE 9.7 km/h 12.9 km/h 88% 0 mm
18:24 -2.7 °C -4.4 °C 1020.5 hPa NE 8 km/h 9.7 km/h 88% 0 mm
18:29 -2.8 °C -4.5 °C 1020.9 hPa NE 8 km/h 16.1 km/h 88% 0 mm
18:34 -2.8 °C -4.5 °C 1020.9 hPa NE 4.8 km/h 16.1 km/h 88% 0 mm
18:39 -2.8 °C -4.5 °C 1020.5 hPa NE 8 km/h 16.1 km/h 88% 0 mm
18:44 -2.8 °C -4.4 °C 1020.5 hPa NE 6.4 km/h 14.5 km/h 89% 0 mm
18:49 -2.8 °C -4.3 °C 1020.5 hPa NE 6.4 km/h 12.9 km/h 89% 0 mm
18:54 -2.8 °C -4.3 °C 1020.9 hPa NE 6.4 km/h 16.1 km/h 89% 0 mm
18:59 -2.8 °C -4.3 °C 1020.9 hPa NE 4.8 km/h 12.9 km/h 89% 0 mm
19:04 -2.8 °C -4.3 °C 1020.9 hPa NE 4.8 km/h 14.5 km/h 89% 0 mm
19:09 -2.8 °C -4.4 °C 1021.2 hPa NE 4.8 km/h 14.5 km/h 89% 0 mm
19:14 -2.8 °C -4.4 °C 1020.9 hPa NE 4.8 km/h 9.7 km/h 89% 0 mm
19:19 -2.8 °C -4.4 °C 1020.9 hPa NE 4.8 km/h 9.7 km/h 89% 0 mm
19:24 -2.8 °C -4.4 °C 1020.9 hPa NE 3.2 km/h 8 km/h 89% 0 mm
19:29 -2.8 °C -4.4 °C 1020.9 hPa NE 4.8 km/h 8 km/h 89% 0 mm
19:34 -2.8 °C -4.4 °C 1020.9 hPa NE 4.8 km/h 8 km/h 89% 0 mm
19:39 -2.9 °C -4.4 °C 1020.9 hPa NE 4.8 km/h 12.9 km/h 89% 0 mm
19:44 -2.9 °C -4.4 °C 1020.9 hPa NE 6.4 km/h 12.9 km/h 89% 0 mm
19:49 -2.8 °C -4.4 °C 1020.9 hPa NE 6.4 km/h 12.9 km/h 89% 0 mm
19:54 -2.9 °C -4.4 °C 1020.9 hPa NE 6.4 km/h 12.9 km/h 89% 0 mm
19:59 -2.8 °C -4.4 °C 1020.9 hPa NE 4.8 km/h 8 km/h 89% 0 mm
20:04 -2.8 °C -4.4 °C 1020.9 hPa NE 4.8 km/h 14.5 km/h 89% 0 mm
20:09 -2.9 °C -4.4 °C 1020.9 hPa NE 4.8 km/h 14.5 km/h 89% 0 mm
20:14 -2.9 °C -4.4 °C 1020.9 hPa NE 4.8 km/h 14.5 km/h 89% 0 mm
20:19 -2.9 °C -4.4 °C 1020.9 hPa NE 6.4 km/h 14.5 km/h 89% 0 mm
20:24 -2.9 °C -4.4 °C 1020.9 hPa NE 4.8 km/h 11.3 km/h 89% 0 mm
20:29 -2.9 °C -4.5 °C 1020.5 hPa NE 6.4 km/h 9.7 km/h 89% 0 mm
20:34 -2.9 °C -4.5 °C 1020.5 hPa NE 3.2 km/h 11.3 km/h 89% 0 mm
20:39 -2.9 °C -4.5 °C 1020.5 hPa NE 4.8 km/h 9.7 km/h 89% 0 mm
20:44 -2.9 °C -4.5 °C 1020.5 hPa NE 4.8 km/h 11.3 km/h 89% 0 mm
20:49 -2.9 °C -4.5 °C 1020.2 hPa ENE 8 km/h 12.9 km/h 89% 0 mm
20:54 -3 °C -4.6 °C 1020.2 hPa NE 6.4 km/h 12.9 km/h 89% 0 mm
20:59 -3 °C -4.6 °C 1020.5 hPa NE 4.8 km/h 12.9 km/h 89% 0 mm
21:04 -3 °C -4.6 °C 1020.5 hPa NE 6.4 km/h 14.5 km/h 89% 0 mm
21:09 -3 °C -4.6 °C 1020.9 hPa NE 8 km/h 11.3 km/h 89% 0 mm
21:14 -3.1 °C -4.6 °C 1020.9 hPa NNE 3.2 km/h 9.7 km/h 89% 0 mm
21:19 -3.1 °C -4.6 °C 1020.9 hPa NE 4.8 km/h 12.9 km/h 89% 0 mm
21:24 -3.1 °C -4.6 °C 1020.9 hPa NE 6.4 km/h 12.9 km/h 89% 0 mm
21:29 -3.1 °C -4.6 °C 1020.9 hPa NE 6.4 km/h 14.5 km/h 89% 0 mm
21:34 -3.1 °C -4.6 °C 1020.5 hPa NE 4.8 km/h 11.3 km/h 89% 0 mm
21:39 -3.1 °C -4.7 °C 1020.5 hPa NE 8 km/h 11.3 km/h 89% 0 mm
21:44 -3.1 °C -4.6 °C 1020.5 hPa NE 8 km/h 9.7 km/h 89% 0 mm
21:49 -3.1 °C -4.6 °C 1020.9 hPa NE 4.8 km/h 11.3 km/h 89% 0 mm
21:54 -3.1 °C -4.7 °C 1020.5 hPa NE 4.8 km/h 11.3 km/h 89% 0 mm
21:59 -3.1 °C -4.7 °C 1020.9 hPa NE 4.8 km/h 9.7 km/h 89% 0 mm
22:04 -3.1 °C -4.7 °C 1020.5 hPa NE 3.2 km/h 12.9 km/h 89% 0 mm
22:09 -3.1 °C -4.7 °C 1020.9 hPa NE 3.2 km/h 11.3 km/h 89% 0 mm
22:14 -3.1 °C -4.7 °C 1020.9 hPa NE 4.8 km/h 11.3 km/h 89% 0 mm
22:19 -3.1 °C -4.7 °C 1020.9 hPa NE 4.8 km/h 8 km/h 89% 0 mm
22:24 -3.1 °C -4.6 °C 1020.9 hPa NE 4.8 km/h 9.7 km/h 89% 0 mm
22:29 -3.1 °C -4.6 °C 1021.2 hPa NE 4.8 km/h 9.7 km/h 89% 0 mm
22:34 -3.1 °C -4.6 °C 1021.2 hPa NE 3.2 km/h 8 km/h 89% 0 mm
22:39 -3.1 °C -4.6 °C 1021.2 hPa NE 3.2 km/h 9.7 km/h 89% 0 mm
22:44 -3.1 °C -4.7 °C 1021.2 hPa NE 4.8 km/h 9.7 km/h 89% 0 mm
22:49 -3.1 °C -4.6 °C 1021.2 hPa NE 9.7 km/h 9.7 km/h 89% 0 mm
22:54 -3.1 °C -4.7 °C 1020.9 hPa NE 4.8 km/h 9.7 km/h 89% 0 mm
22:59 -3.1 °C -4.7 °C 1021.2 hPa NE 4.8 km/h 9.7 km/h 89% 0 mm
23:04 -3.1 °C -4.7 °C 1020.9 hPa North 4.8 km/h 8 km/h 89% 0 mm
23:09 -3.1 °C -4.7 °C 1020.9 hPa NNE 4.8 km/h 8 km/h 89% 0 mm
23:14 -3.1 °C -4.7 °C 1020.9 hPa NE 3.2 km/h 9.7 km/h 89% 0 mm
23:19 -3.1 °C -4.7 °C 1020.9 hPa NNE 3.2 km/h 8 km/h 89% 0 mm
23:24 -3.2 °C -4.7 °C 1020.9 hPa NE 3.2 km/h 9.7 km/h 89% 0 mm
23:29 -3.1 °C -4.7 °C 1020.9 hPa NNE 4.8 km/h 6.4 km/h 89% 0 mm
23:34 -3.2 °C -4.7 °C 1020.9 hPa NE 4.8 km/h 12.9 km/h 89% 0 mm
23:39 -3.2 °C -4.7 °C 1020.9 hPa NE 4.8 km/h 12.9 km/h 89% 0 mm
23:44 -3.2 °C -4.7 °C 1020.9 hPa NE 4.8 km/h 11.3 km/h 89% 0 mm
23:49 -3.2 °C -4.7 °C 1020.5 hPa NE 6.4 km/h 11.3 km/h 89% 0 mm
23:54 -3.2 °C -4.7 °C 1020.5 hPa NE 6.4 km/h 14.5 km/h 89% 0 mm
23:59 -3.2 °C -4.8 °C 1020.5 hPa NE 8 km/h 14.5 km/h 89% 0 mm
Buffalo, New York, USA
Compliments of Weather Underground - 2.5 mb